Estación Meteorológica Peña el Pijo (Robertgarden) [ 07/23/19 01:09:18 CEST ]

Fecha Hora Presion(HPa) Temp (°C) Humedad % Rocio (°C) Viento ( m/s) Direccion Lluvia 1Hora(mm) Lluvia 24H(mm) LLuvia Total(mm)
2019-May-08 01:01:41 1008.600 13.2 64 6.5         318.05
2019-May-08 02:01:58 1008.000 13.1 64 6.4         318.05
2019-May-08 03:01:43 1007.700 12.9 65 6.4         318.05
2019-May-08 04:01:38 1006.900 14.1 66 7.8         318.05
2019-May-08 05:01:38 1006.500 14.6 66 8.3         318.05
2019-May-08 06:01:42 1006.300 14.6 68 8.7         318.05
2019-May-08 07:01:34 1006.300 14.2 71 9.0         318.05
2019-May-08 08:01:42 1006.600 13.7 73 8.9         318.05
2019-May-08 09:01:47 1006.800 14.8 70 9.4         318.05
2019-May-08 10:01:42 1006.700 16.1 62 8.8 2.4 WNW     318.05
2019-May-08 11:01:53 1006.900 19.2 55 9.9 1.1 NNW     318.05
2019-May-08 12:01:36 1007.200 21.8 44 8.9         318.05
2019-May-08 13:01:41 1007.000 22.1 42 8.5         318.05
2019-May-08 14:01:48 1006.500 22.8 42 9.2 0.8 WNW     318.05
2019-May-08 15:01:55 1006.500 22.1 43 8.9         318.05
2019-May-08 16:01:45 1006.200 23.4 38 8.2 2.2 N     318.05
2019-May-08 17:01:52 1005.900 22.9 41 8.9 0.8 WNW     318.05
2019-May-08 18:01:59 1006.000 21.2 45 8.7 3.0 NNE     318.05
2019-May-08 19:01:44 1005.900 19.2 50 8.6         318.05
2019-May-08 20:02:01 1005.800 18.1 56 9.1 1.3 NNW     318.05
2019-May-08 21:01:51 1006.200 16.6 62 9.3         318.05
2019-May-08 22:01:46 1006.400 16.1 65 9.5         318.05
2019-May-08 23:01:43 1006.800 16.0 66 9.7 1.0 WNW     318.05

Temperatura Máxima:23°    Temperatura Mínima:12°
Presión Máxima:1008.600 Hpa    Presión Mínima:1005.800 Hpa


Volver